Time;durP1;ratioP1;P1;durP2;ratioP2;P2;SDS_P1;SDS_P2;PMS_P1;PMS_P2;Temp;Humidity;BMP_temperature;BMP_pressure;BME280_temperature;BME280_humidity;BME280_pressure;Samples;Min_cycle;Max_cycle;Signal;HPM_P1;HPM_P2
2023/06/27 00:01:47;;;;;;;7.68;3.28;;;16.50;99.90;;;;;;5072593;28;20356;-61
2023/06/27 00:04:13;;;;;;;5.38;3.25;;;16.50;99.90;;;;;;5072890;28;20040;-61
2023/06/27 00:06:42;;;;;;;5.50;3.90;;;16.40;99.90;;;;;;5073060;28;20059;-62
2023/06/27 00:09:10;;;;;;;5.78;3.75;;;16.30;99.90;;;;;;5072573;28;20045;-61
2023/06/27 00:11:40;;;;;;;5.32;3.90;;;16.40;99.90;;;;;;5072098;28;20177;-63
2023/06/27 00:14:08;;;;;;;6.25;3.20;;;16.30;99.90;;;;;;5072698;28;20048;-61
2023/06/27 00:16:36;;;;;;;5.25;3.50;;;16.20;99.90;;;;;;5072771;28;20122;-61
2023/06/27 00:19:03;;;;;;;6.93;3.80;;;16.20;99.90;;;;;;5072764;28;20048;-62
2023/06/27 00:21:36;;;;;;;7.93;3.85;;;16.30;99.90;;;;;;5071707;28;20427;-62
2023/06/27 00:24:03;;;;;;;4.18;3.00;;;16.20;99.90;;;;;;5054975;28;20052;-61
2023/06/27 00:26:30;;;;;;;4.78;3.05;;;16.10;99.90;;;;;;5072725;28;20048;-61
2023/06/27 00:28:56;;;;;;;7.38;3.92;;;16.10;99.90;;;;;;5072661;28;20110;-61
2023/06/27 00:31:23;;;;;;;5.65;3.83;;;16.10;99.90;;;;;;5071313;28;20372;-61
2023/06/27 00:33:49;;;;;;;4.28;3.42;;;16.10;99.90;;;;;;5082838;28;20056;-62
2023/06/27 00:36:15;;;;;;;6.35;3.30;;;16.00;99.90;;;;;;5092186;28;20055;-61
2023/06/27 00:38:42;;;;;;;5.15;3.70;;;16.00;99.90;;;;;;5092341;28;20116;-62
2023/06/27 00:41:08;;;;;;;6.40;3.50;;;16.00;99.90;;;;;;5091974;28;20102;-61
2023/06/27 00:43:34;;;;;;;5.80;3.30;;;16.00;99.90;;;;;;5092141;28;20418;-62
2023/06/27 00:46:06;;;;;;;8.25;3.95;;;16.00;99.90;;;;;;5092646;28;20052;-63
2023/06/27 00:48:33;;;;;;;8.75;3.92;;;16.00;99.90;;;;;;5092074;28;20449;-63
2023/06/27 00:51:00;;;;;;;6.63;4.13;;;15.90;99.90;;;;;;5091686;28;20048;-61
2023/06/27 00:53:27;;;;;;;7.70;4.15;;;15.90;99.90;;;;;;5092267;28;20418;-61
2023/06/27 00:55:54;;;;;;;6.53;4.05;;;15.90;99.90;;;;;;5092516;28;20048;-61
2023/06/27 00:58:20;;;;;;;7.15;3.75;;;15.90;99.90;;;;;;5092351;28;20052;-62
2023/06/27 01:00:49;;;;;;;6.82;4.18;;;15.80;99.90;;;;;;5091578;28;20469;-62
2023/06/27 01:03:16;;;;;;;6.20;3.80;;;15.70;99.90;;;;;;5091953;28;20071;-62
2023/06/27 01:05:43;;;;;;;6.28;4.30;;;15.80;99.90;;;;;;5092186;28;20077;-63
2023/06/27 01:08:29;;;;;;;6.45;4.65;;;15.80;99.90;;;;;;5092089;28;20078;-61
2023/06/27 01:11:20;;;;;;;5.45;4.00;;;15.70;99.90;;;;;;5091352;28;20051;-61
2023/06/27 01:13:54;;;;;;;5.07;4.30;;;15.70;99.90;;;;;;5091536;28;20403;-61
2023/06/27 01:16:24;;;;;;;9.45;4.78;;;15.70;99.90;;;;;;5092002;28;20059;-61
2023/06/27 01:18:51;;;;;;;5.97;3.80;;;15.70;99.90;;;;;;5091725;28;20047;-61
2023/06/27 01:21:20;;;;;;;6.18;4.70;;;15.70;99.90;;;;;;5090597;28;20079;-62
2023/06/27 01:23:46;;;;;;;7.10;4.82;;;15.70;99.90;;;;;;5092070;28;20044;-61
2023/06/27 01:26:14;;;;;;;7.28;4.63;;;15.70;99.90;;;;;;5091780;28;20044;-61
2023/06/27 01:28:40;;;;;;;5.93;4.40;;;15.60;99.90;;;;;;5074223;28;20048;-62
2023/06/27 01:31:06;;;;;;;8.38;4.90;;;15.60;99.90;;;;;;5090937;28;20048;-62
2023/06/27 01:33:41;;;;;;;8.20;4.25;;;15.60;99.90;;;;;;5091361;28;20112;-62
2023/06/27 01:36:15;;;;;;;8.18;4.57;;;15.60;99.90;;;;;;5091440;28;20460;-61
2023/06/27 01:38:50;;;;;;;7.95;5.00;;;15.60;99.90;;;;;;5091743;28;20044;-61
2023/06/27 01:41:20;;;;;;;6.70;5.50;;;15.60;99.90;;;;;;5090564;28;20491;-61
2023/06/27 01:43:47;;;;;;;8.45;5.50;;;15.50;99.90;;;;;;5091709;28;20063;-61
2023/06/27 01:46:15;;;;;;;7.70;5.50;;;15.50;99.90;;;;;;5091465;28;20047;-61
2023/06/27 01:48:42;;;;;;;8.32;5.45;;;15.50;99.90;;;;;;5091763;28;20044;-61
2023/06/27 01:51:09;;;;;;;6.85;5.03;;;15.50;99.90;;;;;;5072905;28;20044;-62
2023/06/27 01:53:36;;;;;;;8.45;5.55;;;15.50;99.90;;;;;;5091601;28;20102;-62
2023/06/27 01:56:03;;;;;;;8.18;5.45;;;15.40;99.90;;;;;;5091447;28;20052;-61
2023/06/27 01:58:30;;;;;;;8.00;5.85;;;15.40;99.90;;;;;;5091311;28;20078;-61
2023/06/27 02:00:56;;;;;;;7.65;5.68;;;15.40;99.90;;;;;;5090691;28;20418;-62
2023/06/27 02:03:22;;;;;;;7.40;5.00;;;15.30;99.90;;;;;;5091323;28;20052;-62
2023/06/27 02:05:48;;;;;;;8.98;5.32;;;15.30;99.90;;;;;;5091176;28;20047;-62
2023/06/27 02:08:15;;;;;;;8.32;5.32;;;15.30;99.90;;;;;;5091483;28;20067;-62
2023/06/27 02:10:41;;;;;;;7.72;5.88;;;15.30;99.90;;;;;;5090704;28;20040;-62
2023/06/27 02:13:07;;;;;;;9.70;6.10;;;15.30;99.90;;;;;;5091386;28;20044;-62
2023/06/27 02:15:33;;;;;;;7.65;5.70;;;15.30;99.90;;;;;;5091403;28;20048;-61
2023/06/27 02:18:02;;;;;;;8.05;5.80;;;15.30;99.90;;;;;;5091341;28;20423;-61
2023/06/27 02:20:29;;;;;;;9.88;6.22;;;15.30;99.90;;;;;;5089592;28;20048;-62
2023/06/27 02:22:55;;;;;;;10.85;5.90;;;15.30;99.90;;;;;;5091420;28;20044;-63
2023/06/27 02:25:21;;;;;;;7.00;5.97;;;15.20;99.90;;;;;;5091078;28;20062;-60
2023/06/27 02:27:48;;;;;;;8.27;5.90;;;15.20;99.90;;;;;;5091151;28;20047;-61
2023/06/27 02:30:14;;;;;;;10.63;5.50;;;15.30;99.90;;;;;;5090523;28;20535;-62
2023/06/27 02:32:40;;;;;;;10.95;7.05;;;15.30;99.90;;;;;;5094217;28;20434;-62
2023/06/27 02:35:07;;;;;;;8.95;5.55;;;15.30;99.90;;;;;;5095055;28;20052;-62
2023/06/27 02:37:33;;;;;;;9.05;5.47;;;15.30;99.90;;;;;;5094375;28;20105;-61
2023/06/27 02:39:59;;;;;;;8.55;5.82;;;15.20;99.90;;;;;;5094532;28;20059;-62
2023/06/27 02:42:25;;;;;;;9.43;6.47;;;15.20;99.90;;;;;;5094833;28;20040;-62
2023/06/27 02:44:51;;;;;;;11.20;6.00;;;15.20;99.90;;;;;;5094666;28;20052;-61
2023/06/27 02:47:19;;;;;;;8.57;5.75;;;15.20;99.90;;;;;;5094734;28;20067;-62
2023/06/27 02:49:45;;;;;;;9.10;6.15;;;15.20;99.90;;;;;;5094138;28;20040;-62
2023/06/27 02:52:11;;;;;;;8.93;6.15;;;15.20;99.90;;;;;;5093961;28;20047;-63
2023/06/27 02:54:37;;;;;;;9.90;5.68;;;15.20;99.90;;;;;;5094631;28;20062;-62
2023/06/27 02:57:04;;;;;;;8.38;6.50;;;15.10;99.90;;;;;;5093942;28;20391;-61
2023/06/27 02:59:30;;;;;;;10.05;6.72;;;15.20;99.90;;;;;;5094172;28;20052;-61
2023/06/27 03:01:57;;;;;;;8.05;6.82;;;15.10;99.90;;;;;;5093842;28;20040;-61
2023/06/27 03:04:24;;;;;;;10.32;6.75;;;15.10;99.90;;;;;;5094130;28;20116;-62
2023/06/27 03:06:50;;;;;;;12.55;6.70;;;15.20;99.90;;;;;;5094117;28;20078;-61
2023/06/27 03:09:18;;;;;;;11.07;7.07;;;15.20;99.90;;;;;;5094334;28;20101;-62
2023/06/27 03:11:44;;;;;;;11.55;6.47;;;15.10;99.90;;;;;;5093687;28;20048;-62
2023/06/27 03:14:10;;;;;;;9.02;6.22;;;15.00;99.90;;;;;;5094337;28;20350;-63
2023/06/27 03:16:36;;;;;;;8.93;6.50;;;15.00;99.90;;;;;;5094076;28;20051;-60
2023/06/27 03:19:03;;;;;;;9.05;5.93;;;15.10;99.90;;;;;;5093946;28;20063;-62
2023/06/27 03:21:30;;;;;;;10.60;7.05;;;15.00;99.90;;;;;;5093294;28;20460;-62
2023/06/27 03:23:56;;;;;;;10.30;6.90;;;15.00;99.90;;;;;;5094298;28;20048;-62
2023/06/27 03:26:27;;;;;;;11.82;6.78;;;15.10;99.90;;;;;;5093412;28;20044;-60
2023/06/27 03:28:54;;;;;;;11.75;7.53;;;15.00;99.90;;;;;;5094236;28;20109;-62
2023/06/27 03:31:21;;;;;;;9.93;6.15;;;15.10;99.90;;;;;;5092635;28;20483;-62
2023/06/27 03:33:47;;;;;;;11.52;6.50;;;15.00;99.90;;;;;;5093377;28;20052;-62
2023/06/27 03:36:13;;;;;;;10.98;7.20;;;15.00;99.90;;;;;;5075547;28;20491;-61
2023/06/27 03:38:40;;;;;;;13.07;8.00;;;15.10;99.90;;;;;;5093497;28;20368;-61
2023/06/27 03:41:06;;;;;;;12.70;7.03;;;15.10;99.90;;;;;;5092834;28;20044;-62
2023/06/27 03:43:32;;;;;;;13.50;7.40;;;15.20;99.90;;;;;;5093275;28;20044;-62
2023/06/27 03:45:58;;;;;;;13.25;8.48;;;15.10;99.90;;;;;;5093455;28;20074;-61
2023/06/27 03:48:25;;;;;;;12.48;8.57;;;15.30;99.90;;;;;;5093534;28;20040;-61
2023/06/27 03:50:51;;;;;;;13.52;8.68;;;15.30;99.90;;;;;;5092818;28;20452;-61
2023/06/27 03:53:17;;;;;;;15.32;8.43;;;15.30;99.90;;;;;;5093937;28;20067;-62
2023/06/27 03:55:43;;;;;;;14.25;8.60;;;15.40;99.90;;;;;;5093206;28;20051;-63
2023/06/27 03:58:10;;;;;;;15.65;9.43;;;15.40;99.90;;;;;;5093623;28;20456;-62
2023/06/27 04:00:37;;;;;;;14.23;8.82;;;15.50;99.90;;;;;;5092561;28;20039;-62
2023/06/27 04:03:03;;;;;;;10.95;7.97;;;15.50;99.90;;;;;;5093406;28;20059;-63
2023/06/27 04:05:30;;;;;;;13.00;8.68;;;15.50;99.90;;;;;;5093129;28;20048;-62
2023/06/27 04:07:56;;;;;;;11.02;7.60;;;15.50;99.90;;;;;;5093131;28;20055;-61
2023/06/27 04:10:22;;;;;;;11.35;8.27;;;15.60;99.90;;;;;;5092388;28;20048;-61
2023/06/27 04:12:48;;;;;;;14.68;8.73;;;15.60;99.90;;;;;;5093196;28;20078;-62
2023/06/27 04:15:15;;;;;;;13.98;7.63;;;15.60;99.90;;;;;;5093123;28;20098;-62
2023/06/27 04:17:41;;;;;;;11.63;8.52;;;15.70;99.90;;;;;;5093682;28;20109;-62
2023/06/27 04:20:08;;;;;;;12.57;8.38;;;15.70;99.90;;;;;;5092064;28;20413;-61
2023/06/27 04:22:34;;;;;;;13.30;7.72;;;15.80;99.90;;;;;;5092619;28;20052;-62
2023/06/27 04:25:00;;;;;;;13.70;7.88;;;15.80;99.90;;;;;;5075219;28;20740;-63
2023/06/27 04:27:26;;;;;;;11.63;8.18;;;15.80;99.90;;;;;;5092969;28;20086;-63
2023/06/27 04:29:53;;;;;;;11.43;7.82;;;15.90;99.90;;;;;;5092931;28;20364;-62
2023/06/27 04:32:19;;;;;;;10.68;7.90;;;15.90;99.90;;;;;;5092460;28;20059;-61
2023/06/27 04:34:45;;;;;;;12.77;7.72;;;15.90;99.90;;;;;;5074177;28;20055;-62
2023/06/27 04:37:11;;;;;;;14.07;8.05;;;16.00;99.90;;;;;;5092498;28;20060;-62
2023/06/27 04:39:37;;;;;;;12.93;8.55;;;16.10;99.90;;;;;;5092551;28;20048;-62
2023/06/27 04:42:05;;;;;;;10.60;6.97;;;16.20;99.90;;;;;;5070474;28;20064;-63
2023/06/27 04:44:31;;;;;;;11.90;7.72;;;16.20;99.90;;;;;;5088814;28;20052;-62
2023/06/27 04:46:58;;;;;;;10.77;7.70;;;16.30;99.90;;;;;;5072411;28;20368;-63
2023/06/27 04:49:24;;;;;;;11.25;7.70;;;16.30;99.90;;;;;;5079894;28;20036;-61
2023/06/27 04:51:50;;;;;;;14.27;7.93;;;16.40;99.90;;;;;;5072777;28;20037;-62
2023/06/27 04:54:17;;;;;;;9.65;7.03;;;16.50;99.90;;;;;;5082433;28;20428;-63
2023/06/27 04:56:43;;;;;;;13.63;7.95;;;16.50;99.90;;;;;;5080035;28;20117;-63
2023/06/27 04:59:11;;;;;;;13.10;8.20;;;16.80;99.90;;;;;;5077404;28;20055;-62
2023/06/27 05:01:37;;;;;;;12.13;6.97;;;17.60;99.90;;;;;;5086156;28;20121;-62
2023/06/27 05:04:06;;;;;;;12.73;7.00;;;18.70;99.90;;;;;;5093178;28;20051;-62
2023/06/27 05:06:33;;;;;;;10.20;6.10;;;19.70;99.90;;;;;;5093882;28;20078;-62
2023/06/27 05:09:01;;;;;;;13.35;6.30;;;20.50;99.90;;;;;;5093539;28;20097;-63
2023/06/27 05:11:27;;;;;;;12.43;5.70;;;21.10;99.90;;;;;;5093040;28;20047;-62
2023/06/27 05:13:54;;;;;;;8.45;6.38;;;22.00;99.90;;;;;;5093566;28;20147;-63
2023/06/27 05:16:20;;;;;;;9.40;6.50;;;22.40;99.90;;;;;;5088680;28;20106;-64
2023/06/27 05:18:46;;;;;;;11.10;5.65;;;23.00;99.90;;;;;;5093873;28;20052;-62
2023/06/27 05:21:12;;;;;;;8.25;5.50;;;23.50;99.90;;;;;;5082788;28;20056;-63
2023/06/27 05:23:39;;;;;;;7.28;5.88;;;23.90;99.90;;;;;;5091066;28;20040;-63
2023/06/27 05:26:05;;;;;;;7.97;5.80;;;24.30;99.90;;;;;;5092903;28;20054;-63
2023/06/27 05:28:33;;;;;;;8.02;5.50;;;24.50;99.90;;;;;;5092373;28;20105;-64
2023/06/27 05:30:59;;;;;;;9.02;5.43;;;24.80;99.90;;;;;;5085951;28;20044;-64
2023/06/27 05:33:25;;;;;;;8.40;5.00;;;25.10;99.90;;;;;;5091353;28;20056;-63
2023/06/27 05:35:52;;;;;;;7.45;4.60;;;25.60;99.90;;;;;;5075517;28;20048;-63
2023/06/27 05:38:18;;;;;;;7.80;4.53;;;25.80;99.90;;;;;;5092835;28;20440;-64
2023/06/27 05:40:44;;;;;;;6.03;4.68;;;26.20;99.90;;;;;;5074471;28;20078;-63
2023/06/27 05:43:10;;;;;;;9.25;4.90;;;26.70;99.90;;;;;;5093314;28;20101;-64
2023/06/27 05:45:36;;;;;;;8.63;4.30;;;27.00;99.20;;;;;;5093372;28;20052;-63
2023/06/27 05:48:03;;;;;;;6.95;4.22;;;27.10;99.40;;;;;;5093444;28;20055;-65
2023/06/27 05:50:30;;;;;;;5.40;3.60;;;27.40;99.20;;;;;;5091104;28;20105;-64
2023/06/27 05:52:57;;;;;;;11.90;4.30;;;27.60;98.80;;;;;;5070982;28;20044;-63
2023/06/27 05:55:25;;;;;;;9.65;4.05;;;27.60;98.00;;;;;;5093327;28;20110;-63
2023/06/27 05:57:51;;;;;;;11.90;4.20;;;27.60;98.00;;;;;;5093560;28;20055;-65
2023/06/27 06:00:18;;;;;;;7.40;2.75;;;27.70;98.10;;;;;;5074320;28;20056;-64
2023/06/27 06:02:44;;;;;;;6.20;2.40;;;27.40;97.20;;;;;;5073012;28;20048;-64
2023/06/27 06:05:10;;;;;;;4.68;2.30;;;27.30;96.30;;;;;;5072528;28;20060;-64
2023/06/27 06:07:43;;;;;;;5.47;2.00;;;27.20;94.50;;;;;;5076785;28;20052;-63
2023/06/27 06:10:13;;;;;;;5.03;2.05;;;27.10;94.60;;;;;;5067918;28;20062;-64
2023/06/27 06:12:40;;;;;;;5.40;2.03;;;26.80;95.30;;;;;;5088785;28;20348;-63
2023/06/27 06:15:11;;;;;;;5.70;1.88;;;26.80;95.00;;;;;;5095412;28;20067;-64
2023/06/27 06:17:37;;;;;;;3.65;1.80;;;27.00;95.20;;;;;;5079276;28;20048;-63
2023/06/27 06:20:09;;;;;;;6.65;1.80;;;27.10;95.00;;;;;;5096584;28;20456;-64
2023/06/27 06:22:36;;;;;;;6.25;1.70;;;26.90;94.40;;;;;;5096363;28;20384;-64
2023/06/27 06:25:03;;;;;;;4.43;1.88;;;26.70;94.30;;;;;;5078563;28;20044;-64
2023/06/27 06:27:29;;;;;;;4.45;1.70;;;26.30;94.80;;;;;;5097165;28;20117;-64
2023/06/27 06:29:57;;;;;;;3.33;1.80;;;25.60;94.60;;;;;;5096871;28;20121;-64
2023/06/27 06:32:27;;;;;;;5.50;2.13;;;25.20;95.50;;;;;;5079803;28;20052;-63
2023/06/27 06:34:55;;;;;;;4.03;1.63;;;24.80;95.90;;;;;;5096399;28;20415;-64
2023/06/27 06:37:24;;;;;;;5.78;1.88;;;24.30;96.40;;;;;;5079294;28;20043;-63
2023/06/27 06:39:50;;;;;;;3.78;1.50;;;23.70;96.70;;;;;;5096417;28;20059;-63
2023/06/27 06:42:16;;;;;;;5.15;1.83;;;23.60;96.90;;;;;;5096492;28;20051;-64
2023/06/27 06:44:44;;;;;;;5.93;1.80;;;23.30;97.30;;;;;;5078536;28;20040;-63
2023/06/27 06:47:11;;;;;;;6.63;1.92;;;22.80;97.60;;;;;;5096582;28;20368;-63
2023/06/27 06:49:43;;;;;;;5.65;1.85;;;22.40;97.80;;;;;;5095970;28;20067;-63
2023/06/27 06:52:19;;;;;;;3.25;1.45;;;22.20;98.30;;;;;;5078911;28;20043;-63
2023/06/27 06:54:46;;;;;;;4.35;1.60;;;22.10;98.10;;;;;;5096187;28;20059;-63
2023/06/27 06:57:12;;;;;;;3.88;1.85;;;22.00;98.00;;;;;;5095937;28;20040;-63
2023/06/27 06:59:42;;;;;;;5.70;1.83;;;21.90;97.50;;;;;;5077792;28;20051;-62
2023/06/27 07:02:08;;;;;;;4.53;1.60;;;21.90;97.70;;;;;;5077771;28;20125;-63
2023/06/27 07:04:39;;;;;;;4.30;2.05;;;21.90;97.70;;;;;;5077837;28;20044;-62
2023/06/27 07:07:06;;;;;;;;;;;21.90;97.80;;;;;;5096253;28;20048;-63
2023/06/27 07:09:32;;;;;;;4.47;1.88;;;21.80;98.00;;;;;;5095682;28;19920;-62
2023/06/27 07:12:03;;;;;;;4.20;1.70;;;21.80;98.10;;;;;;5078360;28;20460;-63
2023/06/27 07:14:54;;;;;;;5.00;1.95;;;21.70;98.20;;;;;;5067580;28;20546;-62
2023/06/27 07:17:23;;;;;;;5.75;2.20;;;21.90;98.60;;;;;;5077792;28;20143;-64
2023/06/27 07:19:50;;;;;;;3.25;2.00;;;21.90;99.10;;;;;;5060943;28;20056;-63
2023/06/27 07:22:16;;;;;;;5.10;2.10;;;22.00;99.10;;;;;;5095687;28;20060;-63
2023/06/27 07:24:44;;;;;;;5.80;1.83;;;21.80;99.00;;;;;;5095441;28;20464;-63
2023/06/27 07:27:14;;;;;;;4.57;1.65;;;21.80;99.10;;;;;;5078247;28;20044;-62
2023/06/27 07:29:43;;;;;;;6.03;2.15;;;21.70;99.40;;;;;;5078261;28;20048;-63
2023/06/27 07:32:11;;;;;;;4.53;2.00;;;21.60;99.80;;;;;;5095038;28;20040;-64
2023/06/27 07:34:39;;;;;;;5.30;2.20;;;21.60;99.80;;;;;;5095024;28;20353;-63
2023/06/27 07:37:06;;;;;;;6.28;3.35;;;21.60;99.90;;;;;;5095238;28;20052;-63
2023/06/27 07:39:35;;;;;;;7.22;3.03;;;21.50;99.90;;;;;;5060552;28;20059;-62
2023/06/27 07:42:01;;;;;;;8.23;3.15;;;21.60;99.90;;;;;;5094793;28;20346;-64
2023/06/27 07:44:27;;;;;;;7.57;2.78;;;21.70;99.90;;;;;;5095211;28;20048;-63
2023/06/27 07:46:56;;;;;;;8.90;2.80;;;21.60;99.90;;;;;;5095364;28;20118;-63
2023/06/27 07:49:23;;;;;;;5.32;1.70;;;21.70;99.90;;;;;;5077194;28;20403;-63
2023/06/27 07:51:51;;;;;;;6.10;1.60;;;21.70;99.90;;;;;;5094526;28;20121;-63
2023/06/27 07:54:19;;;;;;;5.80;1.60;;;21.90;99.80;;;;;;5095209;28;20052;-63
2023/06/27 07:56:47;;;;;;;4.03;1.67;;;22.10;99.80;;;;;;5059035;28;20060;-63
2023/06/27 07:59:16;;;;;;;4.05;1.90;;;22.20;99.20;;;;;;5094902;28;20059;-64
2023/06/27 08:01:43;;;;;;;4.03;1.73;;;22.20;99.10;;;;;;5094120;28;20120;-64
2023/06/27 08:04:11;;;;;;;3.13;1.33;;;22.00;99.00;;;;;;5076949;28;20474;-63
2023/06/27 08:06:37;;;;;;;3.15;1.80;;;22.00;99.30;;;;;;5094832;28;20044;-63
2023/06/27 08:09:03;;;;;;;3.45;1.48;;;21.90;98.60;;;;;;5094436;28;20482;-64
2023/06/27 08:11:30;;;;;;;5.25;1.58;;;21.90;98.70;;;;;;5093517;28;20427;-64
2023/06/27 08:13:59;;;;;;;4.57;1.55;;;21.90;98.80;;;;;;5094165;28;20068;-63
2023/06/27 08:16:26;;;;;;;5.38;1.70;;;22.10;98.60;;;;;;5093475;28;20098;-64
2023/06/27 08:18:53;;;;;;;4.20;1.33;;;22.00;98.00;;;;;;5076149;28;20048;-63
2023/06/27 08:21:20;;;;;;;7.22;1.85;;;22.10;97.80;;;;;;5093616;28;20055;-64
2023/06/27 08:23:47;;;;;;;6.05;2.03;;;22.10;97.10;;;;;;5093765;28;20109;-63
2023/06/27 08:26:16;;;;;;;4.40;1.70;;;21.90;96.70;;;;;;5093446;28;20409;-63
2023/06/27 08:28:49;;;;;;;4.90;1.50;;;21.90;96.40;;;;;;5077114;28;20126;-63
2023/06/27 08:31:17;;;;;;;5.13;1.63;;;21.80;96.10;;;;;;5075832;28;20044;-63
2023/06/27 08:33:43;;;;;;;4.35;2.05;;;21.80;96.10;;;;;;5049387;28;20472;-64
2023/06/27 08:36:09;;;;;;;3.97;1.45;;;21.80;96.00;;;;;;5073319;28;20461;-64
2023/06/27 08:38:38;;;;;;;6.75;3.08;;;21.90;96.10;;;;;;5073636;28;20074;-63
2023/06/27 08:41:05;;;;;;;4.57;2.00;;;22.00;96.10;;;;;;5055416;28;20036;-63
2023/06/27 08:43:31;;;;;;;8.27;1.80;;;22.20;96.40;;;;;;5073407;28;20052;-63
2023/06/27 08:46:06;;;;;;;6.43;2.00;;;22.10;96.30;;;;;;5073305;28;20041;-63
2023/06/27 08:48:36;;;;;;;5.07;1.60;;;22.20;96.30;;;;;;5039976;28;20665;-64
2023/06/27 08:51:09;;;;;;;5.63;1.75;;;22.10;96.00;;;;;;5055749;28;20060;-63
2023/06/27 08:53:37;;;;;;;5.22;1.88;;;22.00;96.00;;;;;;5073308;28;20455;-64
2023/06/27 08:56:15;;;;;;;4.35;1.90;;;22.00;96.30;;;;;;5073581;28;20059;-63
2023/06/27 08:59:01;;;;;;;6.47;1.73;;;22.10;96.40;;;;;;5073150;28;20132;-64
2023/06/27 09:01:31;;;;;;;4.72;1.58;;;22.20;96.60;;;;;;5072397;28;20044;-64
2023/06/27 09:03:59;;;;;;;5.53;1.58;;;22.20;96.50;;;;;;5073553;28;20396;-63
2023/06/27 09:06:25;;;;;;;6.50;1.65;;;22.30;96.60;;;;;;5073363;28;20052;-64
2023/06/27 09:08:52;;;;;;;3.67;1.30;;;22.30;96.20;;;;;;5073242;28;20048;-64
2023/06/27 09:11:21;;;;;;;4.10;1.33;;;22.30;96.30;;;;;;5055133;28;20403;-63
2023/06/27 09:13:47;;;;;;;5.78;1.95;;;22.00;96.20;;;;;;5055850;28;20060;-63
2023/06/27 09:16:14;;;;;;;4.82;1.98;;;22.00;96.30;;;;;;5039247;28;20334;-62
2023/06/27 09:18:43;;;;;;;3.78;1.40;;;22.00;96.50;;;;;;5072834;28;20453;-64
2023/06/27 09:21:10;;;;;;;7.13;1.83;;;22.30;96.50;;;;;;5072452;28;20059;-63
2023/06/27 09:23:41;;;;;;;3.83;1.67;;;22.30;96.30;;;;;;5073240;28;20044;-63
2023/06/27 09:26:14;;;;;;;4.57;1.70;;;22.20;96.20;;;;;;5056181;28;20036;-63
2023/06/27 09:28:46;;;;;;;6.07;1.80;;;22.30;96.30;;;;;;5073278;28;20049;-63
2023/06/27 09:31:13;;;;;;;4.43;1.50;;;22.30;96.50;;;;;;5071856;28;20376;-63
2023/06/27 09:33:44;;;;;;;5.25;1.63;;;22.50;96.00;;;;;;5081592;28;20419;-63
2023/06/27 09:36:29;;;;;;;4.63;1.55;;;22.60;96.10;;;;;;5075000;28;20472;-63
2023/06/27 09:38:56;;;;;;;3.30;1.52;;;22.60;96.00;;;;;;5075125;28;20055;-62
2023/06/27 09:41:24;;;;;;;5.43;2.00;;;22.50;96.20;;;;;;5061248;28;20055;-64
2023/06/27 09:43:53;;;;;;;3.67;1.70;;;22.80;96.30;;;;;;5062878;28;20421;-63
2023/06/27 09:46:20;;;;;;;5.63;1.70;;;22.90;96.40;;;;;;5080004;28;20044;-63
2023/06/27 09:48:46;;;;;;;4.60;1.95;;;23.10;95.60;;;;;;5080227;28;20109;-63
2023/06/27 09:51:23;;;;;;;5.05;1.60;;;23.30;95.50;;;;;;5068604;28;20040;-64
2023/06/27 09:53:57;;;;;;;7.43;1.90;;;23.40;95.50;;;;;;5083650;28;20048;-64
2023/06/27 09:56:31;;;;;;;5.72;1.58;;;23.50;95.00;;;;;;5100176;28;20479;-63
2023/06/27 09:59:11;;;;;;;5.22;1.60;;;23.60;95.20;;;;;;5100517;28;20079;-64
2023/06/27 10:01:39;;;;;;;6.80;1.60;;;23.70;95.40;;;;;;5099544;28;20117;-63
2023/06/27 10:04:07;;;;;;;5.32;1.73;;;23.50;95.20;;;;;;5099663;28;20052;-64
2023/06/27 10:06:34;;;;;;;3.83;1.55;;;23.50;95.40;;;;;;5099630;28;20124;-63
2023/06/27 10:09:00;;;;;;;3.65;1.50;;;23.50;95.20;;;;;;5099712;28;20047;-63
2023/06/27 10:11:28;;;;;;;9.10;2.90;;;23.50;95.00;;;;;;5099801;28;20048;-64
2023/06/27 10:13:56;;;;;;;6.68;1.92;;;23.60;95.20;;;;;;5100108;28;20047;-64
2023/06/27 10:16:22;;;;;;;4.22;1.70;;;23.50;95.00;;;;;;5100093;28;20044;-63
2023/06/27 10:18:49;;;;;;;3.17;1.40;;;23.50;95.00;;;;;;5081503;28;20059;-64
2023/06/27 10:21:17;;;;;;;4.82;1.50;;;23.30;94.90;;;;;;5098342;28;20040;-64
2023/06/27 10:23:49;;;;;;;6.50;1.75;;;23.10;95.30;;;;;;5098831;28;20040;-63
2023/06/27 10:26:19;;;;;;;4.78;1.55;;;23.30;95.20;;;;;;5098641;28;20056;-63
2023/06/27 10:28:50;;;;;;;5.50;1.60;;;23.20;95.40;;;;;;5098622;28;20048;-63
2023/06/27 10:31:49;;;;;;;6.78;2.08;;;23.50;95.20;;;;;;5080175;28;20088;-63
2023/06/27 10:34:28;;;;;;;5.28;1.80;;;23.40;94.90;;;;;;5098242;28;20362;-64
2023/06/27 10:36:54;;;;;;;5.75;1.60;;;23.60;95.00;;;;;;5098860;28;20054;-63
2023/06/27 10:39:41;;;;;;;5.32;1.88;;;23.70;94.50;;;;;;5080895;28;20071;-64
2023/06/27 10:42:18;;;;;;;4.90;1.73;;;23.70;94.00;;;;;;5098517;28;20059;-63
2023/06/27 10:45:08;;;;;;;5.97;2.20;;;23.70;93.90;;;;;;5080723;28;20077;-64
2023/06/27 10:47:44;;;;;;;4.47;1.60;;;23.80;93.70;;;;;;5098935;28;20067;-63
2023/06/27 10:50:15;;;;;;;4.10;1.40;;;24.00;93.70;;;;;;5080788;28;20052;-64
2023/06/27 10:53:15;;;;;;;4.65;2.17;;;23.70;93.30;;;;;;5077005;28;20506;-63
2023/06/27 10:55:42;;;;;;;6.40;1.92;;;23.70;93.00;;;;;;5095545;28;20063;-63
2023/06/27 10:58:13;;;;;;;5.45;1.40;;;23.40;93.40;;;;;;5077064;28;20177;-63
2023/06/27 11:00:41;;;;;;;4.10;1.60;;;23.40;93.70;;;;;;5076805;28;20429;-64
2023/06/27 11:03:09;;;;;;;4.03;1.45;;;23.50;93.10;;;;;;5095154;28;20105;-64
2023/06/27 11:05:51;;;;;;;4.28;1.90;;;23.40;93.20;;;;;;5094898;28;20453;-64
2023/06/27 11:08:19;;;;;;;3.75;1.70;;;23.30;94.60;;;;;;5076725;28;20052;-64
2023/06/27 11:10:50;;;;;;;5.80;1.98;;;23.40;94.90;;;;;;5076581;28;20365;-64
2023/06/27 11:13:22;;;;;;;7.10;2.20;;;23.50;94.90;;;;;;5076969;28;20116;-63
2023/06/27 11:15:53;;;;;;;6.05;1.73;;;23.40;95.30;;;;;;5094898;28;20422;-64
2023/06/27 11:18:21;;;;;;;8.15;1.88;;;23.30;94.30;;;;;;5094986;28;20040;-64
2023/06/27 11:20:49;;;;;;;5.75;1.38;;;23.40;94.20;;;;;;5076455;28;20052;-64
2023/06/27 11:23:17;;;;;;;5.18;1.48;;;23.60;93.90;;;;;;5076763;28;20056;-64
2023/06/27 11:25:45;;;;;;;5.72;1.80;;;23.80;93.80;;;;;;5094960;28;20113;-64
2023/06/27 11:28:13;;;;;;;3.72;1.88;;;23.70;94.50;;;;;;5094695;28;20044;-63
2023/06/27 11:30:39;;;;;;;6.20;1.50;;;23.80;93.90;;;;;;5094218;28;20052;-64
2023/06/27 11:33:07;;;;;;;5.00;1.65;;;23.80;94.40;;;;;;5094794;28;20376;-64
2023/06/27 11:35:35;;;;;;;3.78;1.65;;;23.90;94.50;;;;;;5076715;28;20105;-62
2023/06/27 11:38:05;;;;;;;5.05;1.80;;;23.80;94.80;;;;;;5076949;28;20059;-63
2023/06/27 11:40:32;;;;;;;5.93;1.73;;;23.90;94.50;;;;;;5076207;28;20098;-63
2023/06/27 11:43:02;;;;;;;4.18;1.55;;;23.70;93.90;;;;;;5094534;28;20048;-61
2023/06/27 11:45:30;;;;;;;4.07;1.67;;;23.60;93.80;;;;;;5094436;28;20064;-62
2023/06/27 11:48:00;;;;;;;6.35;1.77;;;23.70;94.10;;;;;;5076539;28;20060;-63
2023/06/27 11:50:28;;;;;;;4.32;1.70;;;23.70;94.10;;;;;;5094085;28;20472;-63
2023/06/27 11:52:57;;;;;;;5.07;1.50;;;23.50;93.90;;;;;;5076425;28;20068;-62
2023/06/27 11:55:24;;;;;;;6.40;1.67;;;23.30;93.70;;;;;;5076022;28;20063;-63
2023/06/27 11:57:56;;;;;;;5.78;1.80;;;23.50;93.90;;;;;;5076384;28;20497;-62
2023/06/27 12:00:25;;;;;;;6.05;1.63;;;23.40;93.40;;;;;;5075894;28;20052;-63
2023/06/27 12:02:56;;;;;;;3.63;1.80;;;23.50;93.50;;;;;;5093191;28;20169;-63
2023/06/27 12:05:24;;;;;;;6.45;1.88;;;23.50;93.20;;;;;;5093598;28;20044;-62
2023/06/27 12:08:01;;;;;;;8.60;1.52;;;23.80;93.30;;;;;;5076105;28;20051;-62
2023/06/27 12:10:30;;;;;;;6.35;1.50;;;23.80;92.50;;;;;;5093357;28;20362;-63
2023/06/27 12:12:56;;;;;;;6.85;2.40;;;23.80;93.00;;;;;;5075925;28;20048;-62
2023/06/27 12:15:22;;;;;;;6.32;1.73;;;23.80;93.10;;;;;;5075656;28;20396;-63
2023/06/27 12:18:03;;;;;;;6.30;2.00;;;23.90;93.00;;;;;;5075834;28;20371;-63
2023/06/27 12:20:44;;;;;;;9.10;1.98;;;24.00;93.20;;;;;;5093507;28;20047;-62
2023/06/27 12:23:10;;;;;;;5.25;1.55;;;23.80;92.40;;;;;;5073576;28;20048;-62
2023/06/27 12:25:40;;;;;;;6.63;1.73;;;23.80;92.50;;;;;;5073725;28;20044;-63
2023/06/27 12:28:07;;;;;;;6.38;1.60;;;23.70;92.70;;;;;;5056071;28;20106;-63
2023/06/27 12:30:33;;;;;;;4.65;1.50;;;23.70;92.60;;;;;;5072982;28;20472;-62
2023/06/27 12:33:00;;;;;;;9.65;2.10;;;23.80;92.70;;;;;;5093211;28;20121;-62
2023/06/27 12:35:26;;;;;;;6.47;1.60;;;23.90;92.80;;;;;;5093948;28;20044;-62
2023/06/27 12:37:53;;;;;;;5.53;1.70;;;24.10;93.00;;;;;;5075744;28;20104;-63
2023/06/27 12:40:22;;;;;;;5.95;1.75;;;23.80;93.30;;;;;;5093155;28;20055;-62
2023/06/27 12:42:50;;;;;;;4.63;1.90;;;24.10;93.40;;;;;;5075182;28;20058;-61
2023/06/27 12:45:17;;;;;;;4.45;1.65;;;23.80;93.40;;;;;;5075291;28;20044;-63
2023/06/27 12:47:44;;;;;;;4.55;1.52;;;23.90;93.50;;;;;;5093318;28;20044;-63
2023/06/27 12:50:15;;;;;;;4.95;1.88;;;23.80;93.30;;;;;;5074885;28;20063;-62
2023/06/27 12:52:48;;;;;;;7.00;2.00;;;23.70;93.70;;;;;;5075058;28;20476;-62